Old Saybrook, CT

6:42 AM EST on February 25, 2017 (GMT -0500)
Maple Avenue and Long Island Sound | | Change Station
Active Advisory: Dense Fog Advisory

Elev 23 ft 41.26 °N, 72.38 °W | Updated 2 seconds ago

Overcast
Overcast
51.3 °F
Feels Like 51.3 °F
N
1.8
Wind Variable Wind from SE
Gusts 2.5 mph

Today
High -- | Low -- °F
--% Chance of Precip.
Yesterday
High -- | Low -- °F
Precip. -- in
Pressure 29.83 in
Visibility 0.2 miles
Clouds Overcast 100 ft
Dew Point 50 °F
Humidity 94%
Rainfall 0.00 in
Snow Depth Not available.
6:29 AM 5:35 PM
Waning Crescent, 2% visible
METAR KSNC 251135Z AUTO 17003KT M1/4SM FG OVC001 11/11 A2983 RMK AO2
Pressure 29.83 in
Visibility 0.2 miles
Clouds Overcast 100 ft
Dew Point 50 °F
Humidity 94%
Rainfall 0.00 in
Snow Depth Not available.
6:29 AM 5:35 PM
Waning Crescent, 2% visible
METAR KSNC 251135Z AUTO 17003KT M1/4SM FG OVC001 11/11 A2983 RMK AO2

Get Your Daily Forecast Email!

Thanks for signing up!

Be on the lookout for a verification email in your inbox.

You'll start receiving the daily forecast at 8 AM.

×

10-Day Weather Forecast

Almanac

Astronomy

Feb. 25, 2017 Rise Set
Actual Time
Civil Twilight
Nautical Twilight
Astronomical Twilight
Moon
Length of Visible Light
Length of Day
Tomorrow will be .
, % of the Moon is Illuminated

Today's Extremes

State Highs State Lows

Community

WunderPhotos

Upload Photos

1,962,540 photos uploaded!

WunderBlog® & News

Nearby

Air Quality

  Air Quality AQ Index Pollutant
Not available.

Snow Depth

Station Depth Elevation

Earthquake Activity

City Distance Mag. Time & Date
Minimum magnitude displayed is 2.5.

Coastal Water Temperatures

Place Temperature

Stations

Nearby Weather Stations

Station Location Temp. Windchill Dew Point Humidity Wind Precip. Elev Updated Type
                   

Watches & Warnings

Dense Fog Advisory
Issued: 3:47 AM EST Feb. 25, 2017 – National Weather Service

... Dense fog advisory remains in effect until 11 am EST this
morning...

* visibilities... one quarter mile or less at times.

* Timing... until 11 a.M.

* Impacts... hazardous driving conditions due to reduced
            visibility.

Precautionary/preparedness actions...

A dense fog advisory means visibilities will frequently be
reduced to one quarter mile or less. If driving... slow down... use
your low beam headlights... and leave plenty of distance ahead of
you in case a sudden stop is needed.



12